Time;durP1;ratioP1;P1;durP2;ratioP2;P2;SDS_P1;SDS_P2;PMS_P1;PMS_P2;Temp;Humidity;BMP_temperature;BMP_pressure;BME280_temperature;BME280_humidity;BME280_pressure;Samples;Min_cycle;Max_cycle;Signal;HPM_P1;HPM_P2
2020/12/30 00:00:26;;;;;;;6.50;3.78;;;3.70;99.90;;;;;;5065500;28;20031;-84
2020/12/30 00:02:51;;;;;;;6.35;3.33;;;3.60;99.90;;;;;;5065230;28;20033;-84
2020/12/30 00:05:17;;;;;;;5.03;3.65;;;3.70;99.90;;;;;;5062097;28;20082;-83
2020/12/30 00:07:43;;;;;;;5.20;3.78;;;3.60;99.90;;;;;;5059364;28;20477;-84
2020/12/30 00:10:12;;;;;;;8.00;3.90;;;3.60;99.90;;;;;;5057797;28;20036;-83
2020/12/30 00:12:39;;;;;;;5.75;3.88;;;3.60;99.90;;;;;;5061877;28;20028;-84
2020/12/30 00:15:08;;;;;;;5.97;3.92;;;3.60;99.90;;;;;;5067030;28;20032;-84
2020/12/30 00:17:38;;;;;;;7.60;4.05;;;3.60;99.90;;;;;;5055869;28;20053;-84
2020/12/30 00:20:04;;;;;;;7.80;4.07;;;3.60;99.90;;;;;;5058970;28;20041;-84
2020/12/30 00:22:29;;;;;;;6.47;3.78;;;3.60;99.90;;;;;;5066993;28;20032;-84
2020/12/30 00:24:55;;;;;;;5.30;3.38;;;3.50;99.90;;;;;;5054442;28;20036;-84
2020/12/30 00:27:20;;;;;;;6.35;3.90;;;3.50;99.90;;;;;;5057944;28;20035;-84
2020/12/30 00:29:45;;;;;;;4.25;3.05;;;3.50;99.90;;;;;;5065504;28;20529;-84
2020/12/30 00:32:12;;;;;;;7.35;4.00;;;3.50;99.90;;;;;;5052373;28;20368;-84
2020/12/30 00:34:40;;;;;;;6.30;3.60;;;3.50;99.90;;;;;;5052910;28;20025;-85
2020/12/30 00:37:05;;;;;;;4.85;3.20;;;3.50;99.90;;;;;;5058192;28;20554;-84
2020/12/30 00:39:31;;;;;;;5.70;3.15;;;3.50;99.90;;;;;;5055542;28;20103;-84
2020/12/30 00:41:56;;;;;;;5.53;3.63;;;3.50;99.90;;;;;;5057827;28;20052;-83
2020/12/30 00:44:22;;;;;;;10.80;3.90;;;3.50;99.90;;;;;;5061177;28;20037;-84
2020/12/30 00:46:55;;;;;;;6.95;3.72;;;3.40;99.90;;;;;;5064597;28;20046;-85
2020/12/30 00:49:21;;;;;;;8.95;4.55;;;3.40;99.90;;;;;;5052528;28;20033;-85
2020/12/30 00:51:53;;;;;;;7.32;4.18;;;3.40;99.90;;;;;;5055021;28;20112;-84
2020/12/30 00:54:20;;;;;;;6.75;3.55;;;3.40;99.90;;;;;;5059115;28;20033;-84
2020/12/30 00:56:47;;;;;;;6.07;3.80;;;3.30;99.90;;;;;;5060880;28;20487;-84
2020/12/30 00:59:13;;;;;;;4.80;3.17;;;3.30;99.90;;;;;;5051636;28;20047;-84
2020/12/30 01:01:38;;;;;;;6.95;3.92;;;3.30;99.90;;;;;;5055564;28;20028;-85
2020/12/30 01:04:04;;;;;;;6.50;3.83;;;3.30;99.90;;;;;;5058928;28;20029;-84
2020/12/30 01:06:29;;;;;;;5.10;3.53;;;3.30;99.90;;;;;;5056529;28;20119;-84
2020/12/30 01:08:55;;;;;;;5.40;3.55;;;3.40;99.90;;;;;;5064791;28;20048;-84
2020/12/30 01:11:30;;;;;;;12.65;5.28;;;3.30;99.90;;;;;;5061367;28;20431;-84
2020/12/30 01:13:57;;;;;;;7.15;3.83;;;3.30;99.90;;;;;;5063756;28;20056;-84
2020/12/30 01:16:23;;;;;;;7.28;4.30;;;3.30;99.90;;;;;;5056078;28;20032;-84
2020/12/30 01:18:49;;;;;;;7.32;4.45;;;3.30;99.90;;;;;;5051473;28;20523;-85
2020/12/30 01:21:15;;;;;;;6.85;3.40;;;3.30;99.90;;;;;;5058977;28;20076;-84
2020/12/30 01:23:41;;;;;;;8.48;3.70;;;3.20;99.90;;;;;;5064447;28;20107;-84
2020/12/30 01:26:07;;;;;;;5.70;3.60;;;3.20;99.90;;;;;;5052641;28;20158;-85
2020/12/30 01:28:33;;;;;;;7.93;3.67;;;3.20;99.90;;;;;;5063587;28;20039;-84
2020/12/30 01:30:58;;;;;;;7.03;3.88;;;3.20;99.90;;;;;;5058251;28;20058;-85
2020/12/30 01:33:24;;;;;;;5.68;3.50;;;3.20;99.90;;;;;;5056145;28;20036;-84
2020/12/30 01:35:49;;;;;;;7.03;3.58;;;3.20;99.90;;;;;;5061283;28;20070;-84
2020/12/30 01:38:15;;;;;;;5.97;3.63;;;3.20;99.90;;;;;;5050050;28;20029;-84
2020/12/30 01:40:40;;;;;;;7.50;3.70;;;3.20;99.90;;;;;;5058117;28;20036;-85
2020/12/30 01:43:06;;;;;;;5.57;3.30;;;3.20;99.90;;;;;;5067252;28;20042;-85
2020/12/30 01:45:31;;;;;;;5.45;3.30;;;3.20;99.90;;;;;;5060647;28;20357;-84
2020/12/30 01:47:57;;;;;;;4.45;3.25;;;3.30;99.90;;;;;;5059832;28;20027;-84
2020/12/30 01:50:23;;;;;;;6.13;3.38;;;3.20;99.90;;;;;;5055001;28;20437;-84
2020/12/30 01:52:48;;;;;;;6.43;3.92;;;3.20;99.90;;;;;;5061864;28;20036;-85
2020/12/30 01:55:19;;;;;;;7.05;3.78;;;3.20;99.90;;;;;;5055287;28;20550;-85
2020/12/30 01:57:44;;;;;;;4.95;3.22;;;3.20;99.90;;;;;;5050231;28;20056;-85
2020/12/30 02:00:10;;;;;;;5.18;3.55;;;3.20;99.90;;;;;;5049294;28;20627;-85
2020/12/30 02:02:37;;;;;;;5.60;3.35;;;3.20;99.90;;;;;;5052570;28;20032;-84
2020/12/30 02:05:07;;;;;;;7.30;3.90;;;3.20;99.90;;;;;;5054161;28;20025;-84
2020/12/30 02:07:32;;;;;;;6.32;3.55;;;3.20;99.90;;;;;;5061841;28;20074;-84
2020/12/30 02:09:59;;;;;;;8.63;3.97;;;3.30;99.90;;;;;;5066598;28;20029;-85
2020/12/30 02:12:27;;;;;;;5.30;3.40;;;3.30;99.90;;;;;;5050892;28;20060;-84
2020/12/30 02:14:53;;;;;;;4.40;3.33;;;3.30;99.90;;;;;;5052610;28;20056;-84
2020/12/30 02:17:18;;;;;;;7.07;3.45;;;3.30;99.90;;;;;;5062938;28;20547;-83
2020/12/30 02:19:45;;;;;;;7.38;3.72;;;3.30;99.90;;;;;;5063007;28;20068;-84
2020/12/30 02:22:14;;;;;;;6.35;4.00;;;3.30;99.90;;;;;;5049973;28;20075;-84
2020/12/30 02:24:40;;;;;;;5.72;3.45;;;3.30;99.90;;;;;;5050327;28;20392;-84
2020/12/30 02:27:05;;;;;;;8.50;4.10;;;3.30;99.90;;;;;;5055875;28;20136;-83
2020/12/30 02:29:32;;;;;;;6.32;3.80;;;3.30;99.90;;;;;;5056050;28;20025;-85
2020/12/30 02:31:58;;;;;;;5.68;3.97;;;3.30;99.90;;;;;;5057809;28;20095;-85
2020/12/30 02:34:24;;;;;;;6.18;3.65;;;3.30;99.90;;;;;;5065872;28;20476;-85
2020/12/30 02:36:50;;;;;;;4.63;3.58;;;3.40;99.90;;;;;;5052106;28;20104;-85
2020/12/30 02:39:17;;;;;;;6.28;3.47;;;3.40;99.90;;;;;;5050215;28;20360;-84
2020/12/30 02:41:42;;;;;;;5.93;3.45;;;3.40;99.90;;;;;;5057181;28;20013;-84
2020/12/30 02:44:08;;;;;;;5.25;3.30;;;3.40;99.90;;;;;;5064312;28;20081;-85
2020/12/30 02:46:33;;;;;;;5.88;3.28;;;3.40;99.90;;;;;;5056940;28;20107;-86
2020/12/30 02:48:59;;;;;;;4.70;3.10;;;3.30;99.90;;;;;;5061389;28;20029;-85
2020/12/30 02:51:25;;;;;;;7.28;3.25;;;3.40;99.90;;;;;;5058755;28;20075;-85
2020/12/30 02:53:51;;;;;;;6.90;3.50;;;3.40;99.90;;;;;;5055847;28;20417;-85
2020/12/30 02:56:20;;;;;;;6.25;3.00;;;3.30;99.90;;;;;;5058493;28;20089;-85
2020/12/30 02:58:47;;;;;;;5.05;3.28;;;3.30;99.90;;;;;;5049623;28;20080;-85
2020/12/30 03:01:13;;;;;;;6.00;3.05;;;3.40;99.90;;;;;;5063864;28;20036;-84
2020/12/30 03:03:40;;;;;;;5.80;3.50;;;3.30;99.90;;;;;;5064409;28;20111;-85
2020/12/30 03:06:06;;;;;;;5.50;3.20;;;3.30;99.90;;;;;;5060153;28;20032;-84
2020/12/30 03:08:32;;;;;;;5.18;3.15;;;3.30;99.90;;;;;;5048693;28;20036;-84
2020/12/30 03:10:58;;;;;;;7.70;3.85;;;3.30;99.90;;;;;;5057865;28;20025;-84
2020/12/30 03:13:23;;;;;;;4.35;2.88;;;3.30;99.90;;;;;;5062682;28;20429;-84
2020/12/30 03:15:49;;;;;;;5.38;3.25;;;3.30;99.90;;;;;;5068458;28;20016;-84
2020/12/30 03:18:14;;;;;;;5.85;3.00;;;3.30;99.90;;;;;;5057532;28;20040;-84
2020/12/30 03:20:40;;;;;;;5.00;3.25;;;3.20;99.90;;;;;;5062187;28;20037;-84
2020/12/30 03:23:05;;;;;;;5.95;3.03;;;3.20;99.90;;;;;;5050857;28;20017;-86
2020/12/30 03:25:31;;;;;;;7.75;3.50;;;3.20;99.90;;;;;;5055150;28;20078;-85
2020/12/30 03:27:56;;;;;;;5.18;2.83;;;3.20;99.90;;;;;;5055587;28;20029;-85
2020/12/30 03:30:23;;;;;;;4.50;3.03;;;3.20;99.90;;;;;;5070181;28;20721;-85
2020/12/30 03:32:48;;;;;;;5.72;3.20;;;3.30;99.90;;;;;;5067607;28;20376;-86
2020/12/30 03:35:14;;;;;;;3.45;2.67;;;3.30;99.90;;;;;;5069648;28;20078;-85
2020/12/30 03:37:39;;;;;;;4.43;2.67;;;3.30;99.90;;;;;;5070851;28;20031;-85
2020/12/30 03:40:05;;;;;;;7.18;3.17;;;3.20;99.90;;;;;;5054954;28;20539;-84
2020/12/30 03:42:30;;;;;;;6.20;2.78;;;3.20;99.90;;;;;;5057783;28;20021;-86
2020/12/30 03:44:55;;;;;;;4.63;2.85;;;3.20;99.90;;;;;;5055757;28;20021;-86
2020/12/30 03:47:21;;;;;;;3.90;2.80;;;3.20;99.90;;;;;;5057636;28;20479;-86
2020/12/30 03:49:48;;;;;;;6.93;3.30;;;3.30;99.90;;;;;;5051662;28;20040;-85
2020/12/30 03:52:13;;;;;;;3.53;2.38;;;3.30;99.90;;;;;;5063189;28;20515;-85
2020/12/30 03:54:38;;;;;;;6.97;2.95;;;3.30;99.90;;;;;;5055950;28;20082;-84
2020/12/30 03:57:04;;;;;;;5.18;2.72;;;3.30;99.90;;;;;;5059260;28;20390;-85
2020/12/30 03:59:29;;;;;;;4.68;3.10;;;3.20;99.90;;;;;;5066728;28;20021;-85
2020/12/30 04:01:55;;;;;;;7.13;3.15;;;3.30;99.90;;;;;;5067774;28;20119;-85
2020/12/30 04:04:20;;;;;;;4.30;2.75;;;3.30;99.90;;;;;;5067947;28;20044;-85
2020/12/30 04:06:46;;;;;;;3.63;2.60;;;3.30;99.90;;;;;;5054103;28;20143;-86
2020/12/30 04:09:11;;;;;;;4.38;3.00;;;3.30;99.90;;;;;;5057600;28;20504;-85
2020/12/30 04:11:37;;;;;;;4.18;2.80;;;3.30;99.90;;;;;;5054645;28;20028;-85
2020/12/30 04:14:02;;;;;;;6.45;2.92;;;3.30;99.90;;;;;;5054543;28;20539;-85
2020/12/30 04:16:28;;;;;;;7.63;2.78;;;3.30;99.90;;;;;;5059214;28;20070;-84
2020/12/30 04:18:53;;;;;;;5.85;3.47;;;3.30;99.90;;;;;;5059988;28;20467;-84
2020/12/30 04:21:23;;;;;;;6.78;3.17;;;3.20;99.90;;;;;;5066325;28;20056;-84
2020/12/30 04:23:52;;;;;;;9.27;3.10;;;3.30;99.90;;;;;;5060164;28;20029;-84
2020/12/30 04:26:18;;;;;;;4.47;2.80;;;3.30;99.90;;;;;;5056385;28;20028;-85
2020/12/30 04:28:44;;;;;;;5.93;2.92;;;3.30;99.90;;;;;;5054952;28;20031;-85
2020/12/30 04:31:14;;;;;;;5.32;2.80;;;3.30;99.90;;;;;;5060342;28;20033;-85
2020/12/30 04:33:40;;;;;;;5.95;2.72;;;3.30;99.90;;;;;;5052520;28;20532;-86
2020/12/30 04:36:07;;;;;;;6.47;3.38;;;3.30;99.90;;;;;;5061004;28;20040;-85
2020/12/30 04:38:33;;;;;;;4.63;3.15;;;3.30;99.90;;;;;;5052191;28;20021;-84
2020/12/30 04:41:00;;;;;;;4.82;3.40;;;3.30;99.90;;;;;;5061854;28;20109;-85
2020/12/30 04:43:28;;;;;;;6.22;3.50;;;3.30;99.90;;;;;;5064617;28;20036;-86
2020/12/30 04:45:54;;;;;;;7.20;3.85;;;3.30;99.90;;;;;;5063290;28;20029;-85
2020/12/30 04:48:21;;;;;;;5.25;3.33;;;3.40;99.90;;;;;;5062463;28;20352;-84
2020/12/30 04:50:47;;;;;;;8.02;3.55;;;3.50;99.90;;;;;;5060582;28;20112;-85
2020/12/30 04:53:13;;;;;;;9.02;3.83;;;3.50;99.90;;;;;;5057220;28;20115;-85
2020/12/30 04:55:40;;;;;;;7.28;3.80;;;3.50;99.90;;;;;;5052719;28;20135;-84
2020/12/30 04:58:08;;;;;;;5.40;3.70;;;3.60;99.90;;;;;;5054420;28;20032;-84
2020/12/30 05:00:35;;;;;;;5.28;3.55;;;3.60;99.90;;;;;;5062093;28;20020;-84
2020/12/30 05:03:07;;;;;;;7.63;3.72;;;3.60;99.90;;;;;;5057413;28;20083;-84
2020/12/30 05:05:33;;;;;;;;;;;3.60;99.90;;;;;;5056382;28;20071;-86
2020/12/30 05:07:58;;;;;;;4.78;3.03;;;3.60;99.90;;;;;;5062276;28;19974;-85
2020/12/30 05:10:24;;;;;;;8.02;3.10;;;3.60;99.90;;;;;;5055343;28;20437;-84
2020/12/30 05:12:53;;;;;;;4.47;2.85;;;3.60;99.90;;;;;;5066465;28;20017;-85
2020/12/30 05:15:18;;;;;;;3.85;2.67;;;3.60;99.90;;;;;;5061925;28;20033;-86
2020/12/30 05:17:44;;;;;;;4.03;2.85;;;3.60;99.90;;;;;;5061686;28;20017;-85
2020/12/30 05:20:10;;;;;;;4.53;2.42;;;3.60;99.90;;;;;;5057906;28;20072;-86
2020/12/30 05:22:36;;;;;;;6.15;3.30;;;3.60;99.90;;;;;;5059059;28;20055;-86
2020/12/30 05:25:06;;;;;;;7.25;3.00;;;3.50;99.90;;;;;;5068564;28;20519;-85
2020/12/30 05:27:31;;;;;;;5.55;2.88;;;3.50;99.90;;;;;;5066510;28;20501;-84
2020/12/30 05:29:58;;;;;;;5.65;3.10;;;3.50;99.90;;;;;;5060351;28;20029;-85
2020/12/30 05:32:25;;;;;;;4.72;2.83;;;3.50;99.90;;;;;;5056514;28;20035;-85
2020/12/30 05:34:53;;;;;;;7.47;3.13;;;3.40;99.90;;;;;;5055300;28;20075;-85
2020/12/30 05:37:32;;;;;;;4.97;3.30;;;3.50;99.90;;;;;;5051142;28;20505;-85
2020/12/30 05:39:58;;;;;;;6.22;3.80;;;3.50;99.90;;;;;;5053270;28;20025;-85
2020/12/30 05:42:24;;;;;;;9.52;4.38;;;3.40;99.90;;;;;;5052300;28;20035;-85
2020/12/30 05:44:54;;;;;;;5.95;3.55;;;3.30;99.90;;;;;;5058999;28;20099;-85
2020/12/30 05:47:25;;;;;;;5.57;3.78;;;3.30;99.90;;;;;;5055237;28;20036;-85
2020/12/30 05:49:53;;;;;;;7.03;3.33;;;3.30;99.90;;;;;;5052606;28;20486;-84
2020/12/30 05:52:26;;;;;;;11.82;3.65;;;3.30;99.90;;;;;;5055327;28;20087;-85
2020/12/30 05:54:56;;;;;;;5.57;3.20;;;3.20;99.90;;;;;;5057196;28;20517;-84
2020/12/30 05:57:26;;;;;;;6.30;3.35;;;3.30;99.90;;;;;;5055063;28;20052;-86
2020/12/30 05:59:53;;;;;;;5.47;3.28;;;3.30;99.90;;;;;;5065054;28;20598;-86
2020/12/30 06:02:24;;;;;;;8.38;3.10;;;3.20;99.90;;;;;;5058172;28;20086;-86
2020/12/30 06:04:51;;;;;;;5.70;3.55;;;3.20;99.90;;;;;;5055459;28;20027;-85
2020/12/30 06:07:18;;;;;;;5.50;3.17;;;3.20;99.90;;;;;;5058745;28;20025;-85
2020/12/30 06:09:53;;;;;;;5.40;3.13;;;3.10;99.90;;;;;;5052269;28;20036;-85
2020/12/30 06:12:26;;;;;;;7.40;2.80;;;3.20;99.90;;;;;;5063945;28;20028;-84
2020/12/30 06:14:52;;;;;;;5.78;3.00;;;3.20;99.90;;;;;;5065591;28;20070;-85
2020/12/30 06:17:25;;;;;;;5.90;3.38;;;3.10;99.90;;;;;;5064823;28;20487;-85
2020/12/30 06:19:53;;;;;;;4.55;3.17;;;3.20;99.90;;;;;;5057481;28;20111;-84
2020/12/30 06:22:22;;;;;;;7.03;3.72;;;3.10;99.90;;;;;;5058436;28;20021;-86
2020/12/30 06:24:55;;;;;;;8.38;3.40;;;3.00;99.90;;;;;;5052710;28;20021;-86
2020/12/30 06:27:23;;;;;;;5.18;3.15;;;3.00;99.90;;;;;;5057462;28;20406;-86
2020/12/30 06:29:52;;;;;;;7.18;3.58;;;3.00;99.90;;;;;;5061457;28;20140;-86
2020/12/30 06:32:29;;;;;;;7.65;3.90;;;3.00;99.90;;;;;;5055875;28;20043;-86
2020/12/30 06:34:54;;;;;;;6.88;3.40;;;3.10;99.90;;;;;;5068305;28;20368;-86
2020/12/30 06:37:28;;;;;;;5.70;3.83;;;3.00;99.90;;;;;;5063196;28;20039;-85
2020/12/30 06:40:18;;;;;;;7.88;3.70;;;3.00;99.90;;;;;;5050113;28;20064;-84
2020/12/30 06:42:44;;;;;;;6.70;4.22;;;2.90;99.90;;;;;;5050237;28;20025;-76
2020/12/30 06:45:14;;;;;;;10.80;4.45;;;2.90;99.90;;;;;;5052154;28;20116;-75
2020/12/30 06:48:00;;;;;;;8.23;4.05;;;2.90;99.90;;;;;;5056483;28;20040;-76
2020/12/30 06:50:26;;;;;;;6.47;4.35;;;2.90;99.90;;;;;;5051696;28;20036;-75
2020/12/30 06:52:51;;;;;;;4.57;3.65;;;2.90;99.90;;;;;;5055948;28;20036;-75
2020/12/30 06:55:17;;;;;;;8.50;3.97;;;2.90;99.90;;;;;;5062700;28;20041;-76
2020/12/30 06:57:44;;;;;;;6.03;3.60;;;2.90;99.90;;;;;;5057550;28;20021;-75
2020/12/30 07:00:33;;;;;;;6.93;3.83;;;2.90;99.90;;;;;;5065243;28;20537;-75
2020/12/30 07:03:10;;;;;;;5.97;3.45;;;2.90;99.90;;;;;;5065891;28;20035;-75
2020/12/30 07:05:35;;;;;;;6.75;4.13;;;2.80;99.90;;;;;;5058112;28;20395;-76
2020/12/30 07:08:01;;;;;;;7.20;3.63;;;2.90;99.90;;;;;;5061273;28;20044;-77
2020/12/30 07:10:26;;;;;;;6.85;3.95;;;2.90;99.90;;;;;;5065935;28;20028;-77
2020/12/30 07:12:51;;;;;;;7.07;4.03;;;2.90;99.90;;;;;;5061770;28;20029;-77
2020/12/30 07:15:24;;;;;;;6.65;4.20;;;2.90;99.90;;;;;;5060884;28;20059;-81
2020/12/30 07:17:50;;;;;;;8.38;3.75;;;2.90;99.90;;;;;;5070538;28;20104;-81
2020/12/30 07:20:22;;;;;;;6.38;4.20;;;2.90;99.90;;;;;;5062111;28;20135;-80
2020/12/30 07:22:48;;;;;;;7.63;4.05;;;2.90;99.90;;;;;;5072249;28;20044;-78
2020/12/30 07:25:15;;;;;;;7.50;4.25;;;2.90;99.90;;;;;;5071206;28;20390;-78
2020/12/30 07:27:40;;;;;;;8.43;4.07;;;2.90;99.90;;;;;;5055813;28;20075;-78
2020/12/30 07:30:06;;;;;;;9.48;4.38;;;2.80;99.90;;;;;;5058103;28;20685;-79
2020/12/30 07:32:33;;;;;;;6.55;4.20;;;2.80;99.90;;;;;;5059421;28;20112;-79
2020/12/30 07:35:00;;;;;;;8.77;3.85;;;2.80;99.90;;;;;;5055200;28;20463;-77
2020/12/30 07:37:25;;;;;;;9.05;4.53;;;2.80;99.90;;;;;;5058240;28;20021;-76
2020/12/30 07:39:51;;;;;;;7.20;4.13;;;2.90;99.90;;;;;;5059681;28;20024;-79
2020/12/30 07:42:19;;;;;;;9.07;4.43;;;2.80;99.90;;;;;;5065124;28;20391;-79
2020/12/30 07:44:48;;;;;;;6.63;3.70;;;2.80;99.90;;;;;;5060213;28;20044;-82
2020/12/30 07:47:15;;;;;;;6.88;4.22;;;2.80;99.90;;;;;;5065736;28;20029;-79
2020/12/30 07:49:41;;;;;;;6.55;4.18;;;2.80;99.90;;;;;;5055738;28;20475;-79
2020/12/30 07:52:07;;;;;;;7.43;4.32;;;2.80;99.90;;;;;;5056924;28;20032;-83
2020/12/30 07:54:32;;;;;;;7.22;4.40;;;2.80;99.90;;;;;;5057018;28;20486;-82
2020/12/30 07:57:12;;;;;;;6.78;4.25;;;2.80;99.90;;;;;;5059466;28;20028;-85
2020/12/30 07:59:41;;;;;;;6.38;4.07;;;2.90;99.90;;;;;;5065860;28;20032;-79
2020/12/30 08:02:10;;;;;;;38.40;14.35;;;2.90;99.90;;;;;;5060259;28;20048;-84
2020/12/30 08:04:36;;;;;;;16.80;7.32;;;3.00;99.90;;;;;;5054552;28;20033;-81
2020/12/30 08:07:07;;;;;;;14.85;8.05;;;3.00;99.90;;;;;;5064291;28;20403;-84
2020/12/30 08:09:34;;;;;;;11.15;6.38;;;3.00;99.90;;;;;;5056421;28;20256;-78
2020/12/30 08:12:03;;;;;;;8.75;5.00;;;3.00;99.90;;;;;;5066059;28;20037;-78
2020/12/30 08:14:29;;;;;;;7.00;4.65;;;3.00;99.90;;;;;;5051221;28;20052;-77
2020/12/30 08:17:01;;;;;;;8.65;4.97;;;3.00;99.90;;;;;;5059135;28;20021;-77
2020/12/30 08:19:34;;;;;;;11.88;4.57;;;3.00;99.90;;;;;;5053275;28;20581;-79
2020/12/30 08:22:16;;;;;;;9.32;5.43;;;3.10;99.90;;;;;;5053412;28;20028;-79
2020/12/30 08:24:50;;;;;;;11.43;4.72;;;3.10;99.90;;;;;;5054007;28;20025;-82
2020/12/30 08:27:17;;;;;;;10.15;5.80;;;3.20;99.90;;;;;;5057089;28;20024;-78
2020/12/30 08:29:44;;;;;;;6.32;4.57;;;3.20;99.90;;;;;;5061698;28;20111;-81
2020/12/30 08:32:38;;;;;;;9.15;5.38;;;3.20;99.90;;;;;;5066569;28;20122;-80
2020/12/30 08:35:07;;;;;;;7.82;5.20;;;3.30;99.90;;;;;;5053561;28;20029;-75
2020/12/30 08:37:36;;;;;;;8.50;4.30;;;3.20;99.90;;;;;;5051762;28;20035;-85
2020/12/30 08:40:04;;;;;;;7.50;4.32;;;3.20;99.90;;;;;;5051861;28;20040;-79
2020/12/30 08:43:01;;;;;;;8.23;4.55;;;3.20;99.90;;;;;;5064943;28;20124;-79
2020/12/30 08:45:29;;;;;;;12.50;4.70;;;3.30;99.90;;;;;;5053604;28;20272;-83
2020/12/30 08:47:58;;;;;;;8.27;5.03;;;3.30;99.90;;;;;;5048164;28;20110;-84
2020/12/30 08:50:25;;;;;;;8.30;5.18;;;3.40;99.90;;;;;;5056672;28;20025;-83
2020/12/30 08:52:53;;;;;;;9.15;4.88;;;3.40;99.90;;;;;;5057179;28;20089;-84
2020/12/30 08:55:19;;;;;;;11.93;4.50;;;3.40;99.90;;;;;;5055060;28;20043;-85
2020/12/30 08:57:46;;;;;;;7.15;4.10;;;3.40;99.90;;;;;;5055721;28;20111;-85
2020/12/30 09:00:12;;;;;;;17.13;8.50;;;3.50;99.90;;;;;;5054334;28;20100;-84
2020/12/30 09:02:38;;;;;;;12.23;6.70;;;3.50;99.90;;;;;;5054705;28;20025;-85
2020/12/30 09:05:03;;;;;;;8.45;4.70;;;3.50;99.90;;;;;;5057588;28;20025;-84
2020/12/30 09:07:29;;;;;;;7.07;4.60;;;3.60;99.90;;;;;;5057818;28;20017;-84
2020/12/30 09:10:19;;;;;;;12.73;7.65;;;3.60;99.90;;;;;;5058070;28;20057;-84
2020/12/30 09:12:45;;;;;;;8.85;5.28;;;3.70;99.90;;;;;;5056887;28;20106;-84
2020/12/30 09:15:14;;;;;;;11.93;6.00;;;3.80;99.90;;;;;;5056811;28;20049;-84
2020/12/30 09:17:40;;;;;;;10.70;5.13;;;3.90;99.90;;;;;;5056647;28;20700;-83
2020/12/30 09:20:16;;;;;;;11.35;5.50;;;4.00;99.90;;;;;;5054002;28;20068;-82
2020/12/30 09:22:43;;;;;;;12.27;4.85;;;4.10;99.90;;;;;;5054856;28;20556;-84
2020/12/30 09:25:23;;;;;;;10.50;5.70;;;4.20;99.90;;;;;;5055222;28;20033;-86
2020/12/30 09:27:49;;;;;;;9.07;4.85;;;4.20;99.90;;;;;;5057794;28;20108;-85
2020/12/30 09:30:17;;;;;;;10.95;4.80;;;4.30;99.90;;;;;;5056224;28;20162;-85
2020/12/30 09:32:43;;;;;;;8.18;4.82;;;4.40;99.90;;;;;;5056588;28;20147;-87
2020/12/30 09:35:14;;;;;;;8.57;4.78;;;4.40;99.90;;;;;;5055011;28;20021;-85
2020/12/30 09:37:40;;;;;;;6.97;4.45;;;4.40;99.90;;;;;;5055370;28;20090;-86
2020/12/30 09:40:07;;;;;;;6.20;4.13;;;4.50;99.90;;;;;;5056172;28;20032;-87
2020/12/30 09:42:34;;;;;;;10.82;4.57;;;4.60;99.90;;;;;;5055458;28;20021;-83
2020/12/30 09:45:00;;;;;;;7.75;4.35;;;4.70;99.90;;;;;;5045890;28;20382;-83
2020/12/30 09:47:25;;;;;;;6.85;4.20;;;4.80;99.90;;;;;;5049823;28;20150;-85
2020/12/30 09:49:51;;;;;;;8.10;4.40;;;4.90;99.90;;;;;;5049227;28;20116;-84
2020/12/30 09:52:16;;;;;;;8.90;4.07;;;5.00;99.90;;;;;;5051657;28;20025;-85
2020/12/30 09:54:42;;;;;;;8.65;4.45;;;5.10;99.90;;;;;;5047072;28;20080;-76
2020/12/30 09:57:07;;;;;;;7.70;3.92;;;5.10;99.90;;;;;;5047234;28;20102;-79
2020/12/30 09:59:33;;;;;;;12.82;4.20;;;5.30;99.90;;;;;;5045991;28;20074;-83
2020/12/30 10:01:58;;;;;;;7.20;3.92;;;5.30;99.90;;;;;;5044988;28;20028;-76
2020/12/30 10:04:23;;;;;;;5.57;3.60;;;5.40;99.90;;;;;;5048120;28;20430;-76
2020/12/30 10:06:49;;;;;;;7.38;3.70;;;5.50;99.90;;;;;;5045628;28;20048;-77
2020/12/30 10:09:14;;;;;;;9.57;3.60;;;5.60;99.90;;;;;;5043059;28;20029;-78
2020/12/30 10:11:40;;;;;;;6.40;3.80;;;5.60;99.90;;;;;;5046898;28;20032;-76
2020/12/30 10:14:05;;;;;;;4.85;3.42;;;5.80;99.90;;;;;;5048500;28;20025;-78
2020/12/30 10:16:32;;;;;;;5.80;3.90;;;5.80;99.90;;;;;;5050229;28;20047;-78
2020/12/30 10:18:58;;;;;;;6.82;3.78;;;5.80;99.90;;;;;;5047431;28;20021;-77
2020/12/30 10:21:30;;;;;;;5.55;4.00;;;5.80;99.90;;;;;;5053091;28;20047;-78
2020/12/30 10:23:59;;;;;;;7.18;4.03;;;5.80;99.90;;;;;;5053454;28;20502;-78
2020/12/30 10:26:24;;;;;;;5.72;4.30;;;5.80;99.90;;;;;;5046795;28;20087;-78
2020/12/30 10:28:50;;;;;;;8.43;4.32;;;5.80;99.90;;;;;;5052932;28;20060;-77
2020/12/30 10:31:16;;;;;;;8.68;4.25;;;5.80;99.90;;;;;;5052524;28;20036;-77
2020/12/30 10:33:41;;;;;;;7.07;4.38;;;5.80;99.90;;;;;;5052838;28;20454;-78
2020/12/30 10:36:07;;;;;;;7.55;4.60;;;5.80;99.90;;;;;;5048695;28;20025;-77
2020/12/30 10:38:33;;;;;;;8.95;5.18;;;5.80;99.90;;;;;;5046937;28;20029;-80
2020/12/30 10:40:59;;;;;;;14.65;5.10;;;6.00;99.90;;;;;;5047181;28;20162;-79
2020/12/30 10:43:24;;;;;;;7.20;4.30;;;6.10;99.90;;;;;;5047113;28;20037;-78
2020/12/30 10:45:50;;;;;;;9.88;4.68;;;6.10;99.90;;;;;;5050432;28;20483;-79
2020/12/30 10:48:15;;;;;;;8.32;4.85;;;6.20;99.90;;;;;;5047503;28;20032;-80
2020/12/30 10:50:41;;;;;;;6.07;4.50;;;6.50;99.90;;;;;;5044254;28;20032;-78
2020/12/30 10:53:07;;;;;;;6.60;4.70;;;6.60;99.90;;;;;;5043270;28;20025;-80
2020/12/30 10:55:32;;;;;;;6.88;4.55;;;6.50;99.90;;;;;;5046502;28;20051;-80
2020/12/30 10:57:58;;;;;;;7.40;4.97;;;6.60;99.90;;;;;;5049156;28;20051;-79
2020/12/30 11:00:24;;;;;;;8.32;4.82;;;6.50;99.90;;;;;;5048094;28;20021;-80
2020/12/30 11:02:50;;;;;;;7.07;4.35;;;6.50;99.90;;;;;;5046751;28;20097;-82
2020/12/30 11:05:16;;;;;;;7.80;4.15;;;6.60;99.90;;;;;;5051970;28;20094;-79
2020/12/30 11:07:41;;;;;;;10.38;4.13;;;6.70;99.90;;;;;;5051868;28;20036;-78
2020/12/30 11:10:07;;;;;;;8.00;4.60;;;6.80;99.90;;;;;;5047791;28;20071;-78
2020/12/30 11:12:32;;;;;;;8.48;4.38;;;7.10;99.90;;;;;;5051118;28;20529;-77
2020/12/30 11:14:58;;;;;;;7.88;4.20;;;7.20;99.90;;;;;;5048552;28;20090;-81
2020/12/30 11:17:23;;;;;;;11.05;4.10;;;7.30;99.00;;;;;;5049946;28;20033;-80
2020/12/30 11:19:49;;;;;;;7.55;3.70;;;7.50;98.20;;;;;;5045180;28;20060;-84
2020/12/30 11:22:14;;;;;;;7.18;3.60;;;7.50;97.60;;;;;;5054600;28;20020;-89
2020/12/30 11:24:40;;;;;;;4.35;3.45;;;7.60;97.10;;;;;;5060769;28;20029;-82
2020/12/30 11:27:05;;;;;;;6.95;3.70;;;7.80;96.40;;;;;;5060407;28;20032;-82
2020/12/30 11:29:31;;;;;;;8.02;4.13;;;8.20;95.80;;;;;;5052361;28;20082;-83
2020/12/30 11:31:57;;;;;;;10.38;5.10;;;8.30;95.10;;;;;;5050179;28;20323;-86
2020/12/30 11:34:23;;;;;;;11.13;6.10;;;8.30;94.60;;;;;;5059823;28;20083;-83
2020/12/30 11:36:48;;;;;;;7.97;4.50;;;8.30;94.30;;;;;;5061243;28;20502;-87
2020/12/30 11:39:13;;;;;;;6.82;4.00;;;8.30;94.00;;;;;;5055255;28;20400;-82
2020/12/30 11:41:39;;;;;;;6.60;4.10;;;8.20;93.60;;;;;;5050072;28;20025;-80
2020/12/30 11:44:04;;;;;;;7.78;3.90;;;7.90;94.00;;;;;;5050295;28;20079;-80
2020/12/30 11:46:30;;;;;;;7.55;3.92;;;7.60;94.50;;;;;;5059465;28;20378;-81
2020/12/30 11:48:57;;;;;;;7.47;4.28;;;7.50;95.40;;;;;;5060490;28;20029;-80
2020/12/30 11:51:23;;;;;;;6.63;3.78;;;7.40;96.10;;;;;;5053626;28;20028;-78
2020/12/30 11:53:48;;;;;;;9.38;4.15;;;7.50;96.40;;;;;;5064858;28;20490;-83
2020/12/30 11:56:18;;;;;;;4.57;3.17;;;7.50;95.90;;;;;;5054808;28;20071;-79
2020/12/30 11:58:44;;;;;;;7.15;4.30;;;7.50;95.80;;;;;;5054428;28;20100;-80
2020/12/30 12:01:09;;;;;;;5.72;3.88;;;7.60;95.80;;;;;;5063270;28;20451;-80
2020/12/30 12:03:35;;;;;;;8.32;4.07;;;7.70;95.80;;;;;;5051569;28;20032;-81
2020/12/30 12:06:00;;;;;;;8.15;4.18;;;7.70;95.40;;;;;;5053774;28;20021;-77
2020/12/30 12:08:26;;;;;;;4.82;3.53;;;7.70;95.60;;;;;;5058115;28;20032;-79
2020/12/30 12:10:51;;;;;;;6.88;3.83;;;7.70;95.10;;;;;;5054146;28;20132;-75
2020/12/30 12:13:16;;;;;;;6.40;4.00;;;7.70;95.10;;;;;;5060470;28;20048;-78
2020/12/30 12:15:42;;;;;;;5.65;4.18;;;7.50;95.20;;;;;;5054077;28;20708;-77
2020/12/30 12:18:07;;;;;;;5.43;4.03;;;7.40;95.70;;;;;;5065639;28;20111;-76
2020/12/30 12:20:33;;;;;;;7.63;3.90;;;7.30;96.10;;;;;;5069918;28;20086;-77
2020/12/30 12:22:58;;;;;;;6.00;3.78;;;7.30;96.40;;;;;;5056233;28;20025;-75
2020/12/30 12:25:24;;;;;;;8.00;3.75;;;7.60;96.80;;;;;;5058120;28;20033;-77
2020/12/30 12:27:49;;;;;;;6.22;3.47;;;7.90;95.50;;;;;;5059817;28;20154;-76
2020/12/30 12:30:16;;;;;;;6.57;3.97;;;8.40;94.50;;;;;;5071680;28;20032;-77
2020/12/30 12:32:41;;;;;;;5.93;3.35;;;8.60;93.20;;;;;;5063561;28;20029;-77
2020/12/30 12:35:07;;;;;;;5.90;4.00;;;8.80;92.50;;;;;;5064463;28;20497;-78
2020/12/30 12:37:33;;;;;;;5.57;3.70;;;8.70;92.10;;;;;;5065448;28;20025;-78
2020/12/30 12:39:58;;;;;;;5.72;3.67;;;8.90;91.90;;;;;;5051639;28;20096;-78
2020/12/30 12:42:24;;;;;;;5.70;3.50;;;9.00;91.50;;;;;;5055804;28;20025;-78
2020/12/30 12:44:49;;;;;;;6.10;3.40;;;8.70;91.80;;;;;;5061737;28;20130;-81
2020/12/30 12:47:15;;;;;;;7.55;3.95;;;8.60;92.30;;;;;;5062550;28;20036;-79
2020/12/30 12:49:41;;;;;;;6.82;3.78;;;8.30;92.60;;;;;;5051466;28;20036;-79
2020/12/30 12:52:08;;;;;;;7.07;4.20;;;7.90;93.60;;;;;;5059698;28;20104;-80
2020/12/30 12:54:33;;;;;;;6.65;3.95;;;7.80;94.10;;;;;;5059847;28;20357;-80